ADDS METAR Data INFO
IDs: Format: Raw Decoded Include TAF

Data at: 1250 UTC 19 Oct 2017

K8W2 191235Z AUTO 00000KT 10SM CLR 05/03 A3028 RMK AO1 T00480034
K8W2 191215Z AUTO 00000KT 10SM CLR 03/02 A3028 RMK AO1 T00330024
K8W2 191155Z AUTO 00000KT 10SM CLR 02/02 A3027 RMK AO1 T00220016 10045 20020
K8W2 191135Z AUTO 00000KT 10SM CLR 03/02 A3027 RMK AO1 T00290022
K8W2 191115Z AUTO 00000KT 10SM CLR 02/02 A3027 RMK AO1 T00230015
K8W2 191055Z AUTO 00000KT 10SM CLR 03/02 A3027 RMK AO1 T00310023
K8W2 191035Z AUTO 00000KT 10SM CLR 03/02 A3027 RMK AO1 T00280020
K8W2 191015Z AUTO 00000KT 10SM CLR 03/02 A3027 RMK AO1 T00280023
K8W2 190955Z AUTO 00000KT 10SM CLR 03/02 A3027 RMK AO1 T00290024
K8W2 190935Z AUTO 00000KT 10SM CLR 03/02 A3027 RMK AO1 T00280023
K8W2 190915Z AUTO 00000KT 10SM CLR 04/03 A3027 RMK AO1 T00350028
K8W2 190855Z AUTO 00000KT 10SM CLR 03/02 A3027 RMK AO1 T00290021
K8W2 190835Z AUTO 00000KT 10SM CLR 03/02 A3027 RMK AO1 T00260019
K8W2 190815Z AUTO 00000KT 10SM CLR 03/02 A3027 RMK AO1 T00250019
K8W2 190755Z AUTO 00000KT 10SM CLR 03/02 A3027 RMK AO1 T00310023
K8W2 190735Z AUTO 00000KT 10SM CLR 03/03 A3027 RMK AO1 T00340026
K8W2 190715Z AUTO 00000KT 10SM CLR 04/03 A3027 RMK AO1 T00410034
K8W2 190655Z AUTO 00000KT 7SM CLR 03/03 A3027 RMK AO1 T00340029
K8W2 190635Z AUTO 00000KT 10SM CLR 04/03 A3028 RMK AO1 T00390032
K8W2 190615Z AUTO 00000KT 10SM CLR 03/03 A3028 RMK AO1 T00340028
K8W2 190555Z AUTO 00000KT 10SM CLR 04/04 A3028 RMK AO1 T00440039 10109 20036
K8W2 190535Z AUTO 00000KT 10SM CLR 04/03 A3028 RMK AO1 T00400034
K8W2 190515Z AUTO 00000KT 10SM CLR 04/03 A3028 RMK AO1 T00380030
K8W2 190455Z AUTO 00000KT 10SM CLR 04/03 A3029 RMK AO1 T00420033
K8W2 190435Z AUTO 00000KT 10SM CLR 04/03 A3029 RMK AO1 T00390029
K8W2 190415Z AUTO 00000KT 10SM CLR 04/04 A3030 RMK AO1 T00440038
K8W2 190355Z AUTO 00000KT 10SM CLR 06/04 A3030 RMK AO1 T00570042 402120000
K8W2 190335Z AUTO 00000KT 10SM CLR 06/04 A3030 RMK AO1 T00580040
K8W2 190315Z AUTO 00000KT 10SM CLR 06/04 A3030 RMK AO1 T00570039
K8W2 190255Z AUTO 00000KT 10SM CLR 07/05 A3030 RMK AO1 T00710046
K8W2 190235Z AUTO 00000KT 10SM CLR 07/04 A3030 RMK AO1 T00650044
K8W2 190215Z AUTO 00000KT 10SM CLR 06/04 A3030 RMK AO1 T00630043
K8W2 190155Z AUTO 00000KT 10SM CLR 08/04 A3030 RMK AO1 T00760044
K8W2 190135Z AUTO 00000KT 10SM CLR 07/04 A3030 RMK AO1 T00700044
K8W2 190115Z AUTO 00000KT 10SM CLR 08/05 A3029 RMK AO1 T00800048
K8W2 190055Z AUTO 00000KT 10SM CLR 09/05 A3029 RMK AO1 T00900050
K8W2 190035Z AUTO 00000KT 10SM CLR 09/05 A3029 RMK AO1 T00850047
K8W2 190015Z AUTO 23003KT 10SM CLR 09/05 A3030 RMK AO1 T00900051
K8W2 182355Z AUTO 26003KT 10SM CLR 11/05 A3029 RMK AO1 T01120050 10212 20112
K8W2 182335Z AUTO 00000KT 10SM CLR 12/05 A3029 RMK AO1 T01200047
K8W2 182315Z AUTO 00000KT 10SM CLR 13/05 A3029 RMK AO1 T01250048
K8W2 182255Z AUTO 00000KT 10SM CLR 13/05 A3028 RMK AO1 T01310050
K8W2 182235Z AUTO 00000KT 10SM CLR 16/04 A3028 RMK AO1 T01570042
K8W2 182215Z AUTO 00000KT 10SM CLR 18/03 A3028 RMK AO1 T01760027
K8W2 182155Z AUTO 17004KT 10SM CLR 19/03 A3028 RMK AO1 T01910028
K8W2 182135Z AUTO 19004KT 10SM CLR 20/02 A3028 RMK AO1 T02030023
K8W2 182115Z AUTO 21004KT 10SM CLR 21/02 A3028 RMK AO1 T02060017
K8W2 182055Z AUTO 23007KT 10SM CLR 21/01 A3028 RMK AO1 T02100005
K8W2 182035Z AUTO 22008KT 10SM CLR 21/01 A3029 RMK AO1 T02100011
K8W2 182015Z AUTO 23007KT 10SM CLR 21/00 A3029 RMK AO1 T02120004
K8W2 181955Z AUTO 22003KT 10SM CLR 21/01 A3030 RMK AO1 T02100011
K8W2 181935Z AUTO 24005KT 10SM CLR 21/02 A3030 RMK AO1 T02120016
K8W2 181915Z AUTO 00000KT 10SM CLR 21/01 A3030 RMK AO1 T02060012
K8W2 181855Z AUTO 26004KT 10SM CLR 21/02 A3031 RMK AO1 T02060020
K8W2 181835Z AUTO 19004KT 10SM CLR 21/03 A3032 RMK AO1 T02060028
K8W2 181815Z AUTO 17004KT 10SM CLR 20/02 A3032 RMK AO1 T02010022
K8W2 181755Z AUTO 18006KT 10SM CLR 20/03 A3033 RMK AO1 T02000032 10200 20010
K8W2 181735Z AUTO 25003KT 10SM CLR 20/04 A3035 RMK AO1 T01950038
K8W2 181715Z AUTO 00000KT 10SM CLR 19/04 A3036 RMK AO1 T01860038
K8W2 181655Z AUTO 19004KT 10SM CLR 18/04 A3037 RMK AO1 T01820035
K8W2 181635Z AUTO 23004KT 10SM CLR 17/03 A3038 RMK AO1 T01740034
K8W2 181615Z AUTO 00000KT 10SM CLR 17/04 A3039 RMK AO1 T01690036
K8W2 181555Z AUTO 00000KT 10SM CLR 16/04 A3040 RMK AO1 T01570042
K8W2 181535Z AUTO 00000KT 10SM CLR 15/05 A3040 RMK AO1 T01490046
K8W2 181515Z AUTO 00000KT 10SM CLR 14/04 A3040 RMK AO1 T01360041
K8W2 181455Z AUTO 25003KT 10SM CLR 13/05 A3040 RMK AO1 T01260046
K8W2 181435Z AUTO 00000KT 10SM CLR 11/05 A3041 RMK AO1 T01110049
K8W2 181415Z AUTO 00000KT 10SM CLR 10/05 A3041 RMK AO1 T00970046
K8W2 181355Z AUTO 23003KT 10SM CLR 08/04 A3041 RMK AO1 T00820039
K8W2 181335Z AUTO 21003KT 10SM CLR 07/04 A3041 RMK AO1 T00700038
K8W2 181315Z AUTO 00000KT 7SM CLR 06/03 A3040 RMK AO1 T00550032
K8W2 181255Z AUTO 00000KT 10SM CLR 05/02 A3040 RMK AO1 T00450022
K8W2 181235Z AUTO 00000KT 10SM CLR 03/02 A3040 RMK AO1 T00290020
K8W2 181215Z AUTO 00000KT 10SM CLR 01/01 A3040 RMK AO1 T00130007
K8W2 181155Z AUTO 00000KT 10SM CLR 01/00 A3038 RMK AO1 T00100003 10027 20000
K8W2 181135Z AUTO 00000KT 10SM CLR 01/00 A3038 RMK AO1 T00080002
K8W2 181115Z AUTO 00000KT 10SM CLR 01/00 A3038 RMK AO1 T00100004
K8W2 181055Z AUTO 00000KT 10SM CLR 00/00 A3037 RMK AO1 T00040000
K8W2 181035Z AUTO 00000KT 10SM CLR 02/01 A3037 RMK AO1 T00150008
K8W2 181015Z AUTO 00000KT 10SM CLR 01/01 A3036 RMK AO1 T00120006
K8W2 180955Z AUTO 00000KT 10SM CLR 01/00 A3035 RMK AO1 T00080003
K8W2 180935Z AUTO 00000KT 10SM CLR 01/01 A3035 RMK AO1 T00110005
K8W2 180915Z AUTO 25003KT 10SM CLR 02/01 A3035 RMK AO1 T00150010
K8W2 180855Z AUTO 00000KT 10SM CLR 01/01 A3034 RMK AO1 T00130007
K8W2 180835Z AUTO 00000KT 10SM CLR 02/01 A3034 RMK AO1 T00180012
K8W2 180815Z AUTO 00000KT 10SM CLR 02/01 A3034 RMK AO1 T00150009
K8W2 180755Z AUTO 00000KT 7SM CLR 01/01 A3033 RMK AO1 T00120005
K8W2 180735Z AUTO 00000KT 10SM CLR 02/01 A3033 RMK AO1 T00200014
K8W2 180715Z AUTO 00000KT 10SM CLR 02/01 A3033 RMK AO1 T00180011
K8W2 180655Z AUTO 00000KT 7SM CLR 02/01 A3033 RMK AO1 T00150006
K8W2 180635Z AUTO 00000KT 7SM CLR 03/02 A3033 RMK AO1 T00250018
K8W2 180615Z AUTO 00000KT 7SM CLR 02/01 A3033 RMK AO1 T00210014
K8W2 180555Z AUTO 00000KT 7SM CLR 03/02 A3033 RMK AO1 T00260018 10083 20025
K8W2 180535Z AUTO 00000KT 10SM CLR 03/02 A3033 RMK AO1 T00300020
K8W2 180515Z AUTO 00000KT 10SM CLR 03/02 A3032 RMK AO1 T00280019
K8W2 180455Z AUTO 00000KT 10SM CLR 03/02 A3032 RMK AO1 T00310024
K8W2 180430Z AUTO 00000KT 10SM CLR 04/02 A3032 RMK AO1 T00360024
K8W2 180415Z AUTO 00000KT 10SM CLR 03/02 A3032 RMK AO1 T00330024
K8W2 180355Z AUTO 00000KT 10SM CLR 04/03 A3033 RMK AO1 T00350029 401760000
K8W2 180330Z AUTO 00000KT 10SM CLR 04/03 A3033 RMK AO1 T00410027
K8W2 180315Z AUTO 00000KT 10SM CLR 04/03 A3033 RMK AO1 T00350025
K8W2 180255Z AUTO 00000KT 10SM CLR 04/02 A3033 RMK AO1 T00350023
K8W2 180235Z AUTO 00000KT 10SM CLR 05/03 A3032 RMK AO1 T00470028
K8W2 180215Z AUTO 00000KT 10SM CLR 04/03 A3032 RMK AO1 T00420026
K8W2 180155Z AUTO 00000KT 10SM CLR 05/03 A3031 RMK AO1 T00520026
K8W2 180135Z AUTO 00000KT 10SM CLR 06/03 A3031 RMK AO1 T00570030
K8W2 180115Z AUTO 00000KT 10SM CLR 06/03 A3030 RMK AO1 T00550026
K8W2 180055Z AUTO 00000KT 10SM CLR 07/03 A3030 RMK AO1 T00650031